Time;durP1;ratioP1;P1;durP2;ratioP2;P2;SDS_P1;SDS_P2;PMS_P1;PMS_P2;Temp;Humidity;BMP_temperature;BMP_pressure;BME280_temperature;BME280_humidity;BME280_pressure;Samples;Min_cycle;Max_cycle;Signal;HPM_P1;HPM_P2
2024/01/23 00:02:08;;;;;;;14.20;2.97;;;7.60;99.90;;;;;;4931212;29;20083;-94
2024/01/23 00:04:35;;;;;;;18.23;3.43;;;6.50;99.90;;;;;;4966397;23;20040;-94
2024/01/23 00:07:03;;;;;;;20.70;3.63;;;6.20;99.90;;;;;;4937513;29;20059;-95
2024/01/23 00:09:33;;;;;;;18.00;3.00;;;8.40;99.90;;;;;;4932305;23;20060;-93
2024/01/23 00:12:01;;;;;;;15.83;3.20;;;5.80;99.90;;;;;;4921860;29;20060;-95
2024/01/23 00:15:05;;;;;;;16.93;2.70;;;7.80;99.90;;;;;;4925277;29;20487;-94
2024/01/23 00:17:30;;;;;;;17.20;2.97;;;6.80;99.90;;;;;;4934595;23;20044;-92
2024/01/23 00:20:04;;;;;;;15.97;2.87;;;6.30;99.90;;;;;;4929513;29;20062;-96
2024/01/23 00:22:30;;;;;;;14.97;2.40;;;6.80;99.90;;;;;;4924122;29;20055;-95
2024/01/23 00:25:20;;;;;;;17.60;3.10;;;7.60;99.90;;;;;;4925074;29;20488;-95
2024/01/23 00:27:56;;;;;;;13.40;2.80;;;8.00;99.90;;;;;;4928377;29;20488;-94
2024/01/23 00:30:21;;;;;;;18.10;3.22;;;8.10;99.90;;;;;;4925531;29;20109;-94
2024/01/23 00:32:50;;;;;;;13.23;2.90;;;6.20;99.90;;;;;;4924171;29;20056;-95
2024/01/23 00:35:32;;;;;;;11.60;2.57;;;7.00;99.90;;;;;;5173311;23;20063;-94
2024/01/23 00:37:57;;;;;;;15.73;2.87;;;8.60;99.90;;;;;;4907951;29;20048;-93
2024/01/23 00:40:24;;;;;;;16.90;2.43;;;6.10;99.90;;;;;;4919261;29;20099;-93
2024/01/23 00:43:02;;;;;;;11.47;2.60;;;7.00;99.90;;;;;;4905566;29;20055;-93
2024/01/23 00:45:31;;;;;;;15.17;2.77;;;7.00;99.90;;;;;;4904485;29;20048;-94
2024/01/23 00:48:00;;;;;;;13.07;2.67;;;6.10;99.90;;;;;;4889013;29;20580;-94
2024/01/23 00:50:28;;;;;;;13.97;3.13;;;8.20;99.90;;;;;;4884139;29;20548;-94
2024/01/23 00:52:53;;;;;;;17.63;2.77;;;6.50;99.90;;;;;;4885246;29;20119;-95
2024/01/23 00:55:19;;;;;;;14.13;2.70;;;7.00;99.90;;;;;;4885300;29;20053;-94
2024/01/23 00:57:45;;;;;;;17.23;2.30;;;8.00;99.90;;;;;;4885614;29;20047;-96
2024/01/23 01:00:19;;;;;;;12.10;2.10;;;7.70;99.90;;;;;;4885162;29;20405;-95
2024/01/23 01:02:53;;;;;;;14.70;2.37;;;6.80;99.90;;;;;;4883301;29;20059;-94
2024/01/23 01:05:22;;;;;;;15.23;2.60;;;8.10;99.90;;;;;;4884653;29;20072;-93
2024/01/23 01:07:57;;;;;;;13.87;2.73;;;7.10;99.90;;;;;;4885859;29;20086;-94
2024/01/23 01:10:23;;;;;;;16.17;2.77;;;6.70;99.90;;;;;;4884746;29;20060;-95
2024/01/23 01:12:54;;;;;;;11.30;1.90;;;8.50;99.90;;;;;;4885401;29;20401;-95
2024/01/23 01:15:26;;;;;;;15.40;3.30;;;7.10;99.90;;;;;;4886043;29;20055;-94
2024/01/23 01:17:58;;;;;;;14.37;2.50;;;7.80;99.90;;;;;;4885146;29;20132;-94
2024/01/23 01:21:29;;;;;;;10.23;2.50;;;8.20;99.90;;;;;;4886882;29;20040;-95
2024/01/23 01:24:04;;;;;;;14.53;2.57;;;6.90;99.90;;;;;;4857660;29;20130;-95
2024/01/23 01:26:30;;;;;;;16.17;3.20;;;6.60;99.90;;;;;;4885388;29;20085;-95
2024/01/23 01:28:56;;;;;;;17.13;2.83;;;7.40;99.90;;;;;;4884503;29;20040;-96
2024/01/23 01:31:24;;;;;;;19.10;2.67;;;6.50;99.90;;;;;;4886361;29;20044;-94
2024/01/23 01:34:41;;;;;;;13.60;2.63;;;6.60;99.90;;;;;;4903683;23;20051;-93
2024/01/23 01:37:33;;;;;;;13.57;2.50;;;7.90;99.90;;;;;;4902767;29;20420;-95
2024/01/23 01:40:01;;;;;;;15.67;2.30;;;6.60;99.90;;;;;;4903487;29;20104;-96
2024/01/23 01:42:27;;;;;;;14.60;2.77;;;5.40;99.90;;;;;;4903841;29;20051;-94
2024/01/23 01:45:08;;;;;;;17.10;2.67;;;7.80;99.90;;;;;;4904980;29;20075;-95
2024/01/23 01:47:35;;;;;;;16.27;2.60;;;6.70;99.90;;;;;;4921589;29;20112;-93
2024/01/23 01:50:01;;;;;;;13.23;2.80;;;7.00;99.90;;;;;;4911047;29;20039;-95
2024/01/23 01:52:31;;;;;;;14.93;2.40;;;7.40;99.90;;;;;;4904550;29;20044;-93
2024/01/23 01:54:59;;;;;;;13.70;2.90;;;6.40;99.90;;;;;;4903855;29;20100;-93
2024/01/23 01:57:27;;;;;;;14.43;2.43;;;6.30;99.90;;;;;;4904255;29;20051;-95
2024/01/23 02:00:14;;;;;;;12.50;2.33;;;5.50;99.90;;;;;;4905262;29;20048;-93
2024/01/23 02:02:50;;;;;;;13.17;2.77;;;6.10;99.90;;;;;;4902747;29;20051;-92
2024/01/23 02:05:17;;;;;;;15.33;2.83;;;6.90;99.90;;;;;;4903374;29;20041;-95
2024/01/23 02:07:46;;;;;;;13.23;3.13;;;7.20;99.90;;;;;;4902758;29;20405;-94
2024/01/23 02:10:23;;;;;;;13.67;2.67;;;8.40;99.90;;;;;;4903728;29;20044;-94
2024/01/23 02:12:48;;;;;;;13.43;2.40;;;8.00;99.90;;;;;;4903359;29;20055;-95
2024/01/23 02:15:23;;;;;;;19.70;2.97;;;8.40;99.90;;;;;;4903136;29;20056;-95
2024/01/23 02:17:55;;;;;;;13.13;3.10;;;6.30;99.90;;;;;;4906629;29;20048;-95
2024/01/23 02:20:26;;;;;;;14.53;2.67;;;8.60;99.90;;;;;;4914402;29;20500;-94
2024/01/23 02:22:58;;;;;;;15.63;3.20;;;6.60;99.90;;;;;;4918235;29;20024;-94
2024/01/23 02:25:28;;;;;;;15.83;4.30;;;7.50;99.90;;;;;;4923964;29;20052;-94
2024/01/23 02:28:03;;;;;;;13.70;2.70;;;7.70;99.90;;;;;;4922986;29;20489;-94
2024/01/23 02:30:29;;;;;;;15.90;2.53;;;7.10;99.90;;;;;;4914147;29;20092;-95
2024/01/23 02:33:05;;;;;;;15.40;3.13;;;6.90;99.90;;;;;;4908218;29;20185;-94
2024/01/23 02:35:49;;;;;;;15.70;3.23;;;7.30;99.90;;;;;;4917560;29;20036;-94
2024/01/23 02:38:18;;;;;;;14.60;2.80;;;6.20;99.90;;;;;;4904051;29;20055;-94
2024/01/23 02:40:56;;;;;;;17.17;2.67;;;6.10;99.90;;;;;;4906125;29;20131;-95
2024/01/23 02:43:40;;;;;;;19.20;3.67;;;6.40;99.90;;;;;;4902991;29;20044;-95
2024/01/23 02:46:09;;;;;;;13.53;2.90;;;7.20;99.90;;;;;;4902357;29;20036;-94
2024/01/23 02:49:07;;;;;;;17.60;2.67;;;6.10;99.90;;;;;;4903544;29;20047;-93
2024/01/23 02:52:14;;;;;;;15.10;3.43;;;6.80;99.90;;;;;;4900971;29;20044;-95
2024/01/23 02:54:54;;;;;;;14.67;3.00;;;6.20;99.90;;;;;;4902254;29;20044;-94
2024/01/23 02:57:23;;;;;;;15.93;2.70;;;6.90;99.90;;;;;;4916086;29;20048;-95
2024/01/23 03:00:23;;;;;;;14.60;2.87;;;6.90;99.90;;;;;;4905885;29;20042;-95
2024/01/23 03:03:25;;;;;;;14.97;2.60;;;6.50;99.90;;;;;;4903498;29;20048;-95
2024/01/23 03:06:09;;;;;;;18.47;3.40;;;6.20;99.90;;;;;;4902221;29;20060;-93
2024/01/23 03:08:44;;;;;;;17.92;3.00;;;5.60;99.90;;;;;;4902076;29;20047;-94
2024/01/23 03:11:46;;;;;;;16.10;2.97;;;5.90;99.90;;;;;;4902984;29;20073;-94
2024/01/23 03:15:14;;;;;;;17.80;3.47;;;6.00;99.90;;;;;;4963065;23;20060;-93
2024/01/23 03:18:01;;;;;;;17.67;3.20;;;6.20;99.90;;;;;;4942212;29;20058;-93
2024/01/23 03:20:39;;;;;;;15.53;3.07;;;5.70;99.90;;;;;;4858404;29;20103;-93
2024/01/23 03:23:10;;;;;;;17.17;3.10;;;7.90;99.90;;;;;;4869044;29;20140;-94
2024/01/23 03:25:44;;;;;;;11.23;3.17;;;7.10;99.90;;;;;;4869031;29;20113;-93
2024/01/23 03:29:03;;;;;;;18.17;2.63;;;6.00;99.90;;;;;;4909213;23;20184;-94
2024/01/23 03:31:40;;;;;;;16.93;2.90;;;6.30;99.90;;;;;;4908321;29;20052;-93
2024/01/23 03:34:09;;;;;;;12.87;2.80;;;7.30;99.90;;;;;;4908780;29;20048;-95
2024/01/23 03:36:37;;;;;;;16.70;3.23;;;7.70;99.90;;;;;;4910396;29;20048;-93
2024/01/23 03:39:21;;;;;;;17.63;3.37;;;6.30;99.90;;;;;;4908016;29;20540;-93
2024/01/23 03:42:03;;;;;;;;;;;6.20;99.90;;;;;;4910768;29;20131;-93
2024/01/23 03:44:37;;;;;;;19.97;3.90;;;5.90;99.90;;;;;;4910503;29;19923;-93
2024/01/23 03:47:14;;;;;;;18.33;2.80;;;5.70;99.90;;;;;;4907486;29;20090;-96
2024/01/23 03:49:46;;;;;;;19.20;4.33;;;6.40;99.90;;;;;;4906471;29;20040;-94
2024/01/23 03:52:23;;;;;;;13.73;3.03;;;6.90;99.90;;;;;;4906927;29;20063;-94
2024/01/23 03:54:50;;;;;;;14.60;2.90;;;;;;;;;;4909131;29;20044;-94
2024/01/23 03:57:19;;;;;;;15.83;2.60;;;6.90;99.90;;;;;;4907305;29;20040;-94
2024/01/23 03:59:54;;;;;;;17.43;3.53;;;7.90;99.90;;;;;;4908455;29;20044;-93
2024/01/23 04:02:22;;;;;;;17.50;3.37;;;6.10;99.90;;;;;;4908260;29;20552;-96
2024/01/23 04:04:52;;;;;;;19.37;3.30;;;5.70;99.90;;;;;;4905084;29;20052;-94
2024/01/23 04:07:18;;;;;;;18.13;3.00;;;7.20;99.90;;;;;;4920156;29;20055;-93
2024/01/23 04:09:49;;;;;;;17.30;3.60;;;6.30;99.90;;;;;;4909193;29;20048;-94
2024/01/23 04:12:18;;;;;;;18.63;3.37;;;7.70;99.90;;;;;;4903935;29;20062;-94
2024/01/23 04:14:59;;;;;;;19.70;2.97;;;6.20;99.90;;;;;;4905066;29;20127;-93
2024/01/23 04:17:29;;;;;;;19.60;3.67;;;7.80;99.90;;;;;;4903893;29;20052;-92
2024/01/23 04:20:08;;;;;;;14.50;3.10;;;6.40;99.90;;;;;;4905105;29;20044;-94
2024/01/23 04:22:37;;;;;;;14.07;3.00;;;6.60;99.90;;;;;;4903934;29;20051;-95
2024/01/23 04:25:06;;;;;;;13.37;3.40;;;6.30;99.90;;;;;;4905742;29;20048;-93
2024/01/23 04:31:12;;;;;;;20.33;4.47;;;6.40;99.90;;;;;;4903417;29;20060;-93
2024/01/23 04:33:46;;;;;;;20.13;3.30;;;5.80;99.90;;;;;;4904180;29;20048;-94
2024/01/23 04:36:12;;;;;;;15.57;3.00;;;5.20;99.90;;;;;;4903314;29;20115;-93
2024/01/23 04:38:42;;;;;;;19.00;3.60;;;7.80;99.90;;;;;;4904457;29;20044;-94
2024/01/23 04:41:14;;;;;;;17.43;3.73;;;7.40;99.90;;;;;;4909876;29;20047;-92
2024/01/23 04:43:42;;;;;;;13.10;3.30;;;6.50;99.90;;;;;;4918112;29;20048;-93
2024/01/23 04:46:08;;;;;;;24.43;3.60;;;8.50;99.90;;;;;;4914271;29;20070;-93
2024/01/23 04:48:38;;;;;;;18.90;3.90;;;7.80;99.90;;;;;;4943342;23;20060;-93
2024/01/23 04:51:12;;;;;;;13.97;3.33;;;8.50;99.90;;;;;;4922742;29;20112;-93
2024/01/23 04:53:47;;;;;;;16.07;2.53;;;8.60;99.90;;;;;;4923756;29;20051;-93
2024/01/23 04:56:16;;;;;;;17.17;3.73;;;7.30;99.90;;;;;;4922208;29;20071;-94
2024/01/23 04:58:54;;;;;;;17.03;3.83;;;6.90;99.90;;;;;;4923392;29;20492;-94
2024/01/23 05:01:26;;;;;;;16.87;2.80;;;6.40;99.90;;;;;;4918043;29;20079;-92
2024/01/23 05:03:51;;;;;;;19.87;3.40;;;6.50;99.90;;;;;;4915396;29;20044;-94
2024/01/23 05:06:17;;;;;;;20.37;3.80;;;8.00;99.90;;;;;;5006514;23;20119;-94
2024/01/23 05:08:46;;;;;;;18.37;2.80;;;7.80;99.90;;;;;;4942011;29;20058;-95
2024/01/23 05:11:11;;;;;;;17.17;3.70;;;7.60;99.90;;;;;;4957848;28;20066;-92
2024/01/23 05:13:42;;;;;;;17.03;4.90;;;6.20;99.90;;;;;;4941908;29;20106;-95
2024/01/23 05:16:19;;;;;;;18.97;3.43;;;6.80;99.90;;;;;;4955991;29;20038;-93
2024/01/23 05:18:46;;;;;;;19.93;3.27;;;7.40;99.90;;;;;;4946229;29;20385;-94
2024/01/23 05:21:15;;;;;;;21.17;3.83;;;6.30;99.90;;;;;;4941892;28;20558;-94
2024/01/23 05:23:47;;;;;;;17.33;3.27;;;8.10;99.90;;;;;;4942834;29;20050;-94
2024/01/23 05:26:25;;;;;;;17.03;3.23;;;6.50;99.90;;;;;;4943657;29;20039;-95
2024/01/23 05:28:51;;;;;;;15.63;3.77;;;6.60;99.90;;;;;;4945527;29;20159;-94
2024/01/23 05:31:20;;;;;;;17.67;3.60;;;6.70;99.90;;;;;;4945248;29;20046;-95
2024/01/23 05:33:48;;;;;;;21.13;4.03;;;7.90;99.90;;;;;;4998850;23;20073;-93
2024/01/23 05:36:17;;;;;;;15.63;3.00;;;6.20;99.90;;;;;;4947952;29;20075;-92
2024/01/23 05:38:43;;;;;;;21.23;3.53;;;7.40;99.90;;;;;;4941087;23;20060;-93
2024/01/23 05:41:18;;;;;;;16.03;3.10;;;6.60;99.90;;;;;;4912787;29;20125;-94
2024/01/23 05:43:54;;;;;;;20.23;4.57;;;6.60;99.90;;;;;;4912891;29;20457;-94
2024/01/23 05:46:26;;;;;;;16.00;4.13;;;7.60;99.90;;;;;;4914782;29;20096;-95
2024/01/23 05:48:53;;;;;;;18.63;2.97;;;6.30;99.90;;;;;;4960458;23;20056;-92
2024/01/23 05:51:20;;;;;;;16.60;3.57;;;6.50;99.90;;;;;;4946648;23;20061;-94
2024/01/23 05:53:57;;;;;;;17.80;3.47;;;7.70;99.90;;;;;;4905598;29;20088;-95
2024/01/23 05:56:23;;;;;;;20.37;3.73;;;6.20;99.90;;;;;;4905542;29;20517;-95
2024/01/23 06:01:19;;;;;;;19.33;3.17;;;6.40;99.90;;;;;;4942627;23;20040;-94
2024/01/23 06:03:59;;;;;;;18.93;3.53;;;6.90;99.90;;;;;;4922034;29;20062;-93
2024/01/23 06:06:27;;;;;;;17.80;3.67;;;6.40;99.90;;;;;;4920768;23;20045;-94
2024/01/23 06:08:53;;;;;;;21.13;4.80;;;7.60;99.90;;;;;;4904914;29;20052;-93
2024/01/23 06:11:25;;;;;;;21.10;3.47;;;7.30;99.90;;;;;;4902810;29;20044;-94
2024/01/23 06:14:03;;;;;;;21.70;3.60;;;6.20;99.90;;;;;;4902628;29;20072;-94
2024/01/23 06:16:32;;;;;;;21.17;3.73;;;6.80;99.90;;;;;;4920047;23;20131;-95
2024/01/23 06:23:03;;;;;;;19.80;4.50;;;6.30;99.90;;;;;;4914856;29;20056;-94
2024/01/23 06:25:37;;;;;;;22.00;3.93;;;6.20;99.90;;;;;;4928441;29;20529;-94
2024/01/23 06:28:22;;;;;;;16.60;3.70;;;6.60;99.90;;;;;;4912885;29;20040;-93
2024/01/23 06:30:51;;;;;;;20.70;4.37;;;6.70;99.90;;;;;;4919244;29;20048;-93
2024/01/23 06:33:24;;;;;;;20.53;4.40;;;5.60;99.90;;;;;;4916114;29;20052;-94
2024/01/23 06:35:59;;;;;;;25.73;4.03;;;7.20;99.90;;;;;;4909934;29;20064;-94
2024/01/23 06:38:33;;;;;;;24.43;3.83;;;6.60;99.90;;;;;;4916815;29;20131;-94
2024/01/23 06:44:13;;;;;;;18.57;3.60;;;6.80;99.90;;;;;;4917231;29;20052;-94
2024/01/23 06:46:45;;;;;;;25.73;4.27;;;5.70;99.90;;;;;;4917511;29;20044;-93
2024/01/23 06:49:34;;;;;;;15.33;2.60;;;7.40;99.90;;;;;;4917478;29;20051;-93
2024/01/23 06:52:03;;;;;;;21.27;3.30;;;7.50;99.90;;;;;;4904413;29;20520;-95
2024/01/23 06:54:29;;;;;;;17.23;3.93;;;6.40;99.90;;;;;;4927487;23;20056;-93
2024/01/23 06:56:59;;;;;;;15.73;3.25;;;8.50;99.90;;;;;;4909792;29;20059;-94
2024/01/23 06:59:25;;;;;;;13.73;2.90;;;6.00;99.90;;;;;;4908397;29;20457;-93
2024/01/23 07:01:51;;;;;;;12.13;2.73;;;8.30;99.90;;;;;;4906651;29;20100;-94
2024/01/23 07:04:20;;;;;;;11.73;3.07;;;6.40;99.90;;;;;;4906167;29;20091;-95
2024/01/23 07:06:52;;;;;;;14.17;3.03;;;7.40;99.90;;;;;;4907070;29;20043;-95
2024/01/23 07:09:26;;;;;;;13.63;2.83;;;8.50;99.90;;;;;;4906026;29;20055;-93
2024/01/23 07:11:55;;;;;;;12.53;2.80;;;6.80;99.90;;;;;;4905314;29;20138;-92
2024/01/23 07:14:24;;;;;;;15.43;3.07;;;6.70;99.90;;;;;;4905338;29;20054;-93
2024/01/23 07:16:59;;;;;;;19.97;3.17;;;6.50;99.90;;;;;;4906429;29;20048;-93
2024/01/23 07:19:27;;;;;;;17.50;3.30;;;5.40;99.90;;;;;;4907517;29;20072;-95
2024/01/23 07:21:56;;;;;;;24.33;4.33;;;6.90;99.90;;;;;;4903638;29;20055;-95
2024/01/23 07:24:25;;;;;;;26.50;4.40;;;5.90;99.90;;;;;;4902568;29;20036;-89
2024/01/23 07:26:59;;;;;;;20.20;4.00;;;6.60;99.90;;;;;;4904087;29;20052;-87
2024/01/23 07:29:28;;;;;;;22.20;4.73;;;7.40;99.90;;;;;;4904210;29;20047;-91
2024/01/23 07:32:00;;;;;;;24.00;4.70;;;6.90;99.90;;;;;;4902922;29;20088;-90
2024/01/23 07:34:26;;;;;;;19.30;4.23;;;6.50;99.90;;;;;;4903628;29;20100;-90
2024/01/23 07:36:51;;;;;;;22.30;3.60;;;6.50;99.90;;;;;;4902455;29;20098;-93
2024/01/23 07:39:17;;;;;;;20.00;3.77;;;6.80;99.90;;;;;;4904069;29;20488;-90
2024/01/23 07:41:43;;;;;;;26.93;4.67;;;6.70;99.90;;;;;;4903434;29;20048;-90
2024/01/23 07:44:09;;;;;;;21.70;4.47;;;6.70;99.90;;;;;;4902504;29;20100;-88
2024/01/23 07:46:34;;;;;;;25.70;4.73;;;6.70;99.90;;;;;;4902819;29;20055;-87
2024/01/23 07:49:00;;;;;;;17.90;4.37;;;6.70;99.90;;;;;;4902117;29;20052;-91
2024/01/23 07:51:43;;;;;;;20.60;3.80;;;6.70;99.90;;;;;;4901778;29;20104;-88
2024/01/23 07:54:11;;;;;;;23.40;5.17;;;6.70;99.90;;;;;;4901844;29;20047;-89
2024/01/23 07:56:37;;;;;;;22.80;4.53;;;6.70;99.90;;;;;;4904972;29;20036;-89
2024/01/23 07:59:02;;;;;;;22.87;4.23;;;6.70;99.90;;;;;;4903042;29;20374;-89
2024/01/23 08:01:28;;;;;;;25.50;4.27;;;6.70;99.90;;;;;;4903816;29;20036;-90
2024/01/23 08:03:54;;;;;;;21.57;4.23;;;6.60;99.90;;;;;;4901155;29;20103;-90
2024/01/23 08:06:20;;;;;;;27.07;5.00;;;6.60;99.90;;;;;;4901587;29;20415;-89
2024/01/23 08:08:52;;;;;;;21.83;3.80;;;6.60;99.90;;;;;;4899691;29;20143;-90
2024/01/23 08:11:23;;;;;;;22.00;4.63;;;8.00;99.90;;;;;;4889454;29;20048;-89
2024/01/23 08:13:51;;;;;;;19.30;4.20;;;7.80;99.90;;;;;;4901403;29;20445;-89
2024/01/23 08:16:25;;;;;;;18.43;4.00;;;7.70;99.90;;;;;;4901321;29;20046;-88
2024/01/23 08:18:51;;;;;;;20.80;4.60;;;5.50;99.90;;;;;;4900788;29;20412;-88
2024/01/23 08:21:17;;;;;;;27.13;4.27;;;6.40;99.90;;;;;;4901172;29;20048;-89
2024/01/23 08:24:02;;;;;;;30.03;5.20;;;6.20;99.90;;;;;;4901442;29;20085;-89
2024/01/23 08:26:34;;;;;;;20.60;3.87;;;6.40;99.90;;;;;;4901148;29;20051;-90
2024/01/23 08:29:03;;;;;;;23.63;4.23;;;7.90;99.90;;;;;;4902335;29;20059;-90
2024/01/23 08:31:29;;;;;;;23.77;4.40;;;6.40;99.90;;;;;;4902268;29;20473;-90
2024/01/23 08:33:57;;;;;;;24.13;4.57;;;6.30;99.90;;;;;;4901345;29;20575;-89
2024/01/23 08:36:23;;;;;;;20.00;4.43;;;6.20;99.90;;;;;;4900777;29;20061;-88
2024/01/23 08:38:49;;;;;;;23.70;4.80;;;6.20;99.90;;;;;;4901614;29;20044;-90
2024/01/23 08:41:14;;;;;;;23.03;4.53;;;6.20;99.90;;;;;;4900029;29;20052;-90
2024/01/23 08:43:40;;;;;;;22.03;4.10;;;6.20;99.90;;;;;;4893783;29;20156;-90
2024/01/23 08:46:06;;;;;;;22.17;3.88;;;6.10;99.90;;;;;;4901529;29;20040;-88
2024/01/23 08:48:31;;;;;;;23.67;4.73;;;6.20;99.90;;;;;;4900683;29;20039;-89
2024/01/23 08:50:57;;;;;;;19.80;4.57;;;6.20;99.90;;;;;;4900893;29;20139;-89
2024/01/23 08:53:22;;;;;;;20.67;4.40;;;6.10;99.90;;;;;;4887746;29;20071;-90
2024/01/23 08:55:48;;;;;;;24.70;4.63;;;6.10;99.90;;;;;;4885192;29;20065;-91
2024/01/23 08:58:17;;;;;;;22.23;5.20;;;6.20;99.90;;;;;;4893342;29;20096;-90
2024/01/23 09:00:43;;;;;;;23.27;4.77;;;6.10;99.90;;;;;;4898711;29;20059;-90
2024/01/23 09:03:09;;;;;;;24.13;4.43;;;6.50;99.90;;;;;;4900397;29;20111;-90
2024/01/23 09:05:35;;;;;;;25.87;5.20;;;6.10;99.90;;;;;;4982531;23;20579;-90
2024/01/23 09:08:01;;;;;;;24.63;5.00;;;6.40;99.90;;;;;;4936830;28;20043;-89
2024/01/23 09:10:27;;;;;;;24.97;4.70;;;6.20;99.90;;;;;;4943331;29;20049;-90
2024/01/23 09:12:53;;;;;;;28.43;4.93;;;6.10;99.90;;;;;;4942049;29;20047;-90
2024/01/23 09:15:19;;;;;;;18.77;4.30;;;7.30;99.90;;;;;;4939482;29;20114;-89
2024/01/23 09:17:45;;;;;;;24.47;5.27;;;6.20;99.90;;;;;;4938885;29;20074;-90
2024/01/23 09:20:11;;;;;;;25.17;4.07;;;6.30;99.90;;;;;;4937579;29;20058;-90
2024/01/23 09:22:37;;;;;;;19.77;4.77;;;6.20;99.90;;;;;;4937114;29;20050;-89
2024/01/23 09:25:05;;;;;;;27.57;4.87;;;6.30;99.90;;;;;;4929014;29;20043;-89
2024/01/23 09:27:30;;;;;;;23.30;4.20;;;6.30;99.90;;;;;;4937566;29;20065;-90
2024/01/23 09:29:56;;;;;;;22.08;5.03;;;6.30;99.90;;;;;;4939514;29;20043;-90
2024/01/23 09:32:22;;;;;;;23.33;4.10;;;6.40;99.90;;;;;;4937996;29;20499;-90
2024/01/23 09:34:50;;;;;;;23.20;4.47;;;6.40;99.90;;;;;;4937230;29;20050;-89
2024/01/23 09:37:15;;;;;;;24.00;4.20;;;6.50;99.90;;;;;;4937034;29;20047;-89
2024/01/23 09:39:42;;;;;;;22.60;3.70;;;7.90;99.90;;;;;;4938904;29;20054;-89
2024/01/23 09:42:10;;;;;;;22.47;4.30;;;6.50;99.90;;;;;;4937578;29;20051;-91
2024/01/23 09:44:36;;;;;;;19.87;4.03;;;6.60;99.90;;;;;;4937165;29;20051;-90
2024/01/23 09:47:03;;;;;;;18.90;4.93;;;6.80;99.90;;;;;;4937658;29;20043;-89
2024/01/23 09:49:32;;;;;;;22.70;5.57;;;6.60;99.90;;;;;;4937954;28;20122;-89
2024/01/23 09:52:03;;;;;;;23.50;5.23;;;6.60;99.90;;;;;;4935954;29;20649;-90
2024/01/23 09:54:31;;;;;;;23.53;4.63;;;8.40;99.90;;;;;;4938027;28;20141;-89
2024/01/23 09:57:00;;;;;;;22.60;4.40;;;8.30;99.90;;;;;;4937119;29;20499;-90
2024/01/23 09:59:25;;;;;;;17.43;3.97;;;6.80;99.90;;;;;;4937777;28;20043;-90
2024/01/23 10:01:53;;;;;;;19.02;4.22;;;6.80;99.90;;;;;;4938353;29;20046;-91
2024/01/23 10:04:21;;;;;;;29.80;4.72;;;6.90;99.90;;;;;;4936650;28;20043;-90
2024/01/23 10:06:47;;;;;;;21.07;4.50;;;7.90;99.90;;;;;;4937842;29;20083;-89
2024/01/23 10:09:13;;;;;;;28.57;4.60;;;7.00;99.90;;;;;;4937901;29;20141;-92
2024/01/23 10:11:39;;;;;;;19.63;3.90;;;7.10;99.90;;;;;;4936989;29;20082;-92
2024/01/23 10:14:06;;;;;;;23.23;4.53;;;7.10;99.90;;;;;;4937387;29;20043;-92
2024/01/23 10:16:32;;;;;;;24.27;4.73;;;7.10;99.90;;;;;;4937771;29;20139;-91
2024/01/23 10:18:58;;;;;;;19.23;4.20;;;7.10;99.90;;;;;;4937057;29;20126;-92
2024/01/23 10:21:24;;;;;;;19.67;4.30;;;7.80;99.90;;;;;;4948921;29;20411;-91
2024/01/23 10:23:50;;;;;;;23.07;4.33;;;7.40;99.90;;;;;;4937848;29;20047;-92
2024/01/23 10:26:17;;;;;;;23.23;3.90;;;7.10;99.90;;;;;;4937318;29;20411;-92
2024/01/23 10:28:43;;;;;;;20.53;4.80;;;7.60;99.90;;;;;;4940860;29;20470;-92
2024/01/23 10:31:10;;;;;;;22.37;4.27;;;7.20;99.90;;;;;;4938844;29;20046;-91
2024/01/23 10:33:39;;;;;;;22.53;5.20;;;8.80;99.90;;;;;;4937070;29;20075;-92
2024/01/23 10:36:05;;;;;;;21.93;3.63;;;7.40;99.90;;;;;;4936549;29;20046;-89
2024/01/23 10:38:37;;;;;;;23.83;4.20;;;7.50;99.90;;;;;;4937813;29;20491;-91
2024/01/23 10:41:07;;;;;;;20.73;4.33;;;7.50;99.90;;;;;;4939783;29;20444;-94
2024/01/23 10:43:33;;;;;;;19.77;4.30;;;7.50;99.90;;;;;;4940369;29;20451;-96
2024/01/23 10:46:02;;;;;;;22.67;4.07;;;7.50;99.90;;;;;;4939271;29;20062;-91
2024/01/23 10:48:49;;;;;;;23.40;4.43;;;8.70;99.90;;;;;;4938840;29;20114;-94
2024/01/23 10:51:22;;;;;;;26.60;4.73;;;7.30;99.90;;;;;;4940213;29;20436;-90
2024/01/23 10:54:30;;;;;;;24.40;4.33;;;7.30;99.90;;;;;;4939121;29;20463;-90
2024/01/23 10:57:08;;;;;;;;;;;;;;;;;;;;;
2024/01/23 10:59:54;;;;;;;22.73;4.33;;;8.90;99.90;;;;;;4944729;29;20392;-92
2024/01/23 11:08:30;;;;;;;21.35;4.43;;;7.70;99.90;;;;;;4929649;29;20103;-92
2024/01/23 11:11:23;;;;;;;21.13;3.80;;;8.40;99.90;;;;;;4906111;29;20062;-92
2024/01/23 11:14:53;;;;;;;22.10;3.80;;;7.70;99.90;;;;;;4919066;29;20062;-93
2024/01/23 11:17:32;;;;;;;20.77;4.37;;;8.40;99.90;;;;;;4891016;29;20053;-93
2024/01/23 11:20:24;;;;;;;24.03;4.53;;;9.10;99.90;;;;;;4919568;29;20052;-91
2024/01/23 11:23:27;;;;;;;22.73;4.00;;;7.60;99.90;;;;;;4917668;29;20052;-93
2024/01/23 11:26:16;;;;;;;24.03;4.17;;;9.10;99.90;;;;;;4915698;29;20143;-91
2024/01/23 11:28:44;;;;;;;22.00;3.70;;;7.80;99.90;;;;;;4904345;29;20051;-94
2024/01/23 11:33:43;;;;;;;19.90;3.80;;;8.10;99.90;;;;;;4961536;23;20472;-95
2024/01/23 11:36:24;;;;;;;18.07;4.07;;;9.10;99.90;;;;;;4944683;29;20070;-96
2024/01/23 11:39:14;;;;;;;22.98;4.60;;;7.70;99.90;;;;;;4941417;29;20492;-96
2024/01/23 11:41:50;;;;;;;23.70;3.30;;;7.80;99.90;;;;;;4944062;28;20115;-95
2024/01/23 11:44:21;;;;;;;29.02;5.18;;;9.10;99.90;;;;;;4960686;28;20043;-87
2024/01/23 11:46:50;;;;;;;22.37;5.37;;;9.70;99.90;;;;;;4926506;23;20156;-89
2024/01/23 11:49:16;;;;;;;21.92;3.92;;;7.90;99.90;;;;;;4899017;29;20041;-93
2024/01/23 11:51:43;;;;;;;25.67;4.15;;;7.90;99.90;;;;;;4887377;29;20048;-89
2024/01/23 11:54:10;;;;;;;23.08;4.93;;;8.80;99.90;;;;;;4884010;29;20152;-89
2024/01/23 11:56:37;;;;;;;22.85;4.47;;;8.00;99.90;;;;;;4899426;29;20501;-88
2024/01/23 11:59:02;;;;;;;21.35;3.72;;;8.50;99.90;;;;;;4901390;29;20135;-89
2024/01/23 12:01:30;;;;;;;26.15;4.40;;;8.00;99.90;;;;;;4901785;29;20119;-86
2024/01/23 12:03:56;;;;;;;23.55;4.78;;;8.10;99.90;;;;;;4900349;29;20052;-87
2024/01/23 12:06:23;;;;;;;21.92;4.03;;;8.10;99.90;;;;;;4901730;29;20129;-87
2024/01/23 12:08:48;;;;;;;20.38;4.43;;;9.00;99.90;;;;;;4901611;29;20519;-85
2024/01/23 12:11:18;;;;;;;18.50;3.47;;;8.20;99.90;;;;;;4901653;29;20114;-90
2024/01/23 12:13:49;;;;;;;22.02;4.22;;;8.10;99.90;;;;;;4901310;29;20079;-87
2024/01/23 12:16:16;;;;;;;18.67;3.63;;;8.10;99.90;;;;;;4905402;29;20087;-86
2024/01/23 12:18:42;;;;;;;19.02;4.20;;;8.30;99.90;;;;;;4918102;29;20056;-89
2024/01/23 12:21:09;;;;;;;20.92;4.18;;;8.20;99.90;;;;;;4902236;29;20426;-90
2024/01/23 12:23:35;;;;;;;18.73;3.75;;;8.20;99.90;;;;;;4918172;29;20135;-90
2024/01/23 12:26:01;;;;;;;18.77;4.25;;;8.20;99.90;;;;;;4901696;29;20467;-91
2024/01/23 12:28:30;;;;;;;22.70;5.00;;;8.20;99.90;;;;;;4908387;29;20090;-92
2024/01/23 12:30:56;;;;;;;24.75;4.40;;;8.30;99.90;;;;;;4915192;29;20416;-95
2024/01/23 12:33:22;;;;;;;18.98;3.83;;;8.20;99.90;;;;;;4915881;29;20044;-91
2024/01/23 12:35:49;;;;;;;17.00;3.45;;;8.10;99.90;;;;;;4901650;29;20115;-91
2024/01/23 12:38:15;;;;;;;22.88;3.70;;;8.30;99.90;;;;;;4902287;29;20051;-90
2024/01/23 12:40:42;;;;;;;21.63;4.88;;;9.40;99.90;;;;;;4894056;29;20408;-89
2024/01/23 12:43:08;;;;;;;22.05;4.40;;;8.40;99.90;;;;;;4898375;29;20059;-92
2024/01/23 12:45:34;;;;;;;21.08;4.00;;;8.50;99.90;;;;;;4903377;29;20046;-88
2024/01/23 12:48:00;;;;;;;20.73;4.25;;;8.60;99.90;;;;;;4919425;29;20048;-90
2024/01/23 12:50:27;;;;;;;21.85;3.72;;;8.60;99.90;;;;;;4919844;29;20044;-89
2024/01/23 12:52:54;;;;;;;23.65;4.00;;;8.70;99.90;;;;;;4918902;29;20058;-90
2024/01/23 12:55:21;;;;;;;20.95;4.03;;;9.10;99.90;;;;;;4921970;29;20048;-91
2024/01/23 12:57:46;;;;;;;19.50;4.18;;;8.90;99.90;;;;;;4919953;29;20046;-88
2024/01/23 13:00:14;;;;;;;21.25;4.28;;;8.80;99.90;;;;;;4904662;29;20055;-88
2024/01/23 13:02:40;;;;;;;19.92;3.65;;;8.90;99.90;;;;;;4911076;29;20481;-93
2024/01/23 13:05:06;;;;;;;25.90;4.85;;;8.70;99.90;;;;;;4916338;29;20480;-93
2024/01/23 13:07:32;;;;;;;21.52;3.85;;;8.50;99.90;;;;;;4919433;29;20039;-91
2024/01/23 13:09:58;;;;;;;20.25;4.28;;;8.60;99.90;;;;;;4918721;29;20044;-89
2024/01/23 13:12:24;;;;;;;15.10;3.70;;;8.40;99.90;;;;;;4917072;29;20044;-92
2024/01/23 13:14:50;;;;;;;20.05;4.40;;;9.00;99.90;;;;;;4905214;29;20063;-91
2024/01/23 13:17:16;;;;;;;18.48;3.55;;;8.20;99.90;;;;;;4920374;29;20062;-93
2024/01/23 13:19:41;;;;;;;25.17;5.50;;;8.20;99.90;;;;;;4920954;29;20047;-94
2024/01/23 13:22:08;;;;;;;18.83;3.67;;;8.10;99.90;;;;;;4912271;29;20156;-94
2024/01/23 13:24:34;;;;;;;18.85;3.35;;;9.30;99.90;;;;;;4904792;29;20059;-94
2024/01/23 13:27:06;;;;;;;20.95;4.00;;;8.10;99.90;;;;;;4920918;29;20057;-96
2024/01/23 13:29:33;;;;;;;17.45;3.78;;;8.10;99.90;;;;;;4918426;29;20052;-95
2024/01/23 13:31:59;;;;;;;24.13;3.97;;;8.00;99.90;;;;;;4915955;29;20053;-94
2024/01/23 13:34:24;;;;;;;19.52;3.72;;;8.00;99.90;;;;;;4942857;29;20063;-94